Time;durP1;ratioP1;P1;durP2;ratioP2;P2;SDS_P1;SDS_P2;PMS_P1;PMS_P2;Temp;Humidity;BMP_temperature;BMP_pressure;BME280_temperature;BME280_humidity;BME280_pressure;Samples;Min_cycle;Max_cycle;Signal;HPM_P1;HPM_P2
2023/09/24 00:00:39;;;;;;;6.28;2.30;;;;;;;10.14;100.00;102139.09;10479747;28;20048;-74
2023/09/24 00:05:41;;;;;;;4.50;2.42;;;;;;;10.07;100.00;102141.06;10478846;28;20405;-74
2023/09/24 00:10:46;;;;;;;8.27;2.33;;;;;;;10.04;100.00;102142.31;10468858;28;20060;-74
2023/09/24 00:15:46;;;;;;;6.20;3.53;;;;;;;10.08;100.00;102151.00;10477111;28;20041;-73
2023/09/24 00:20:47;;;;;;;6.78;2.70;;;;;;;10.19;100.00;102149.44;10478351;28;20037;-72
2023/09/24 00:25:49;;;;;;;5.78;2.70;;;;;;;10.30;100.00;102146.03;10480011;28;20041;-74
2023/09/24 00:30:52;;;;;;;6.75;3.05;;;;;;;10.43;100.00;102150.59;10476183;28;20037;-73
2023/09/24 00:35:53;;;;;;;5.40;3.08;;;;;;;10.46;100.00;102144.69;10480579;28;20044;-73
2023/09/24 00:40:53;;;;;;;5.18;3.35;;;;;;;10.56;100.00;102153.25;10466328;28;20045;-73
2023/09/24 00:45:58;;;;;;;10.20;4.32;;;;;;;10.55;100.00;102136.97;10468383;28;20060;-73
2023/09/24 00:51:04;;;;;;;7.57;3.70;;;;;;;10.66;100.00;102153.59;10454886;28;20037;-73
2023/09/24 00:56:04;;;;;;;8.40;3.05;;;;;;;10.57;100.00;102157.72;10479494;28;20127;-74
2023/09/24 01:01:06;;;;;;;9.15;3.40;;;;;;;10.38;100.00;102153.19;10473977;28;20511;-73
2023/09/24 01:06:06;;;;;;;7.28;3.20;;;;;;;10.29;100.00;102175.47;10471864;28;20044;-73
2023/09/24 01:11:07;;;;;;;8.38;3.05;;;;;;;10.20;100.00;102176.75;10476223;28;20104;-73
2023/09/24 01:16:08;;;;;;;8.57;3.47;;;;;;;10.13;100.00;102189.72;10478302;28;20033;-73
2023/09/24 01:21:13;;;;;;;10.55;3.47;;;;;;;10.04;100.00;102197.34;10473292;28;20489;-73
2023/09/24 01:26:14;;;;;;;8.00;2.72;;;;;;;9.97;100.00;102195.72;10477175;28;20041;-74
2023/09/24 01:31:18;;;;;;;11.25;4.35;;;;;;;9.87;100.00;102197.00;10475391;28;20076;-74
2023/09/24 01:36:20;;;;;;;5.90;3.35;;;;;;;9.84;100.00;102196.63;10474910;28;20037;-73
2023/09/24 01:41:22;;;;;;;6.80;3.20;;;;;;;9.78;100.00;102212.06;10475096;28;20067;-72
2023/09/24 01:46:22;;;;;;;7.00;3.47;;;;;;;9.71;100.00;102211.22;10474218;28;20041;-73
2023/09/24 01:51:23;;;;;;;8.73;4.68;;;;;;;9.68;100.00;102197.94;10482724;28;20048;-74
2023/09/24 01:56:24;;;;;;;12.07;4.07;;;;;;;9.62;100.00;102188.63;10484331;28;20055;-74
2023/09/24 02:01:24;;;;;;;10.27;4.35;;;;;;;9.57;100.00;102195.84;10481037;28;21203;-74
2023/09/24 02:06:25;;;;;;;8.13;4.00;;;;;;;9.49;100.00;102195.00;10483771;28;20048;-74
2023/09/24 02:11:27;;;;;;;6.90;4.10;;;;;;;9.47;100.00;102190.81;10464743;28;20037;-74
2023/09/24 02:16:27;;;;;;;5.93;3.58;;;;;;;9.43;100.00;102193.13;10484917;28;20048;-75
2023/09/24 02:21:29;;;;;;;8.68;4.22;;;;;;;9.33;100.00;102192.72;10480070;28;20370;-75
2023/09/24 02:26:30;;;;;;;8.48;3.35;;;;;;;9.24;100.00;102196.72;10486538;28;20051;-74
2023/09/24 02:31:31;;;;;;;6.00;3.80;;;;;;;9.27;100.00;102191.66;10479240;28;20041;-74
2023/09/24 02:36:31;;;;;;;8.48;3.58;;;;;;;9.29;100.00;102194.19;10477338;28;20092;-74
2023/09/24 02:41:31;;;;;;;8.48;3.65;;;;;;;9.23;100.00;102195.06;10481125;28;20066;-74
2023/09/24 02:46:32;;;;;;;12.95;5.60;;;;;;;9.19;100.00;102200.13;10454126;28;20045;-68
2023/09/24 02:51:33;;;;;;;8.10;4.82;;;;;;;9.13;100.00;102202.88;10483816;28;20040;-74
2023/09/24 02:56:33;;;;;;;8.63;4.07;;;;;;;9.06;100.00;102203.72;10480956;28;20106;-74
2023/09/24 03:01:35;;;;;;;7.95;4.43;;;;;;;9.01;100.00;102198.03;10481987;28;20036;-74
2023/09/24 03:06:38;;;;;;;11.68;5.78;;;;;;;8.97;100.00;102202.25;10481342;28;20077;-74
2023/09/24 03:11:38;;;;;;;11.38;5.13;;;;;;;8.96;100.00;102211.53;10479674;28;20059;-72
2023/09/24 03:16:39;;;;;;;29.73;6.43;;;;;;;8.96;100.00;102217.03;10434041;28;20045;-73
2023/09/24 03:21:39;;;;;;;11.50;5.22;;;;;;;9.00;100.00;102229.28;10471335;28;20037;-73
2023/09/24 03:26:41;;;;;;;13.77;4.80;;;;;;;8.94;100.00;102224.66;10482724;28;20093;-73
2023/09/24 03:31:42;;;;;;;20.65;5.35;;;;;;;8.93;100.00;102228.47;10475309;28;20064;-74
2023/09/24 03:36:42;;;;;;;15.40;5.22;;;;;;;8.95;100.00;102242.84;10482247;28;20043;-73
2023/09/24 03:41:43;;;;;;;13.80;5.10;;;;;;;9.04;100.00;102248.97;10476157;28;20106;-74
2023/09/24 03:46:43;;;;;;;16.90;5.93;;;;;;;9.11;100.00;102258.03;10483491;28;20051;-73
2023/09/24 03:51:43;;;;;;;16.88;6.05;;;;;;;9.20;100.00;102261.41;10473076;28;20388;-74
2023/09/24 03:56:45;;;;;;;15.07;5.70;;;;;;;9.28;100.00;102266.69;10480541;28;20067;-74
2023/09/24 04:01:46;;;;;;;18.60;6.85;;;;;;;9.36;100.00;102271.97;10476716;28;20087;-75
2023/09/24 04:06:46;;;;;;;17.80;7.70;;;;;;;9.44;100.00;102277.25;10479711;28;20075;-74
2023/09/24 04:11:47;;;;;;;17.67;7.40;;;;;;;9.54;100.00;102274.09;10467293;28;20484;-74
2023/09/24 04:16:47;;;;;;;15.85;7.80;;;;;;;9.50;100.00;102257.16;10476429;28;20124;-74
2023/09/24 04:21:48;;;;;;;18.13;7.53;;;;;;;9.55;100.00;102266.69;10477517;28;20036;-75
2023/09/24 04:26:48;;;;;;;17.77;7.75;;;;;;;9.54;100.00;102267.75;10477872;28;20103;-75
2023/09/24 04:31:49;;;;;;;11.77;7.47;;;;;;;9.53;100.00;102283.41;10475609;28;20388;-75
2023/09/24 04:36:51;;;;;;;21.88;8.57;;;;;;;9.52;100.00;102280.88;10480110;28;20067;-73
2023/09/24 04:41:52;;;;;;;19.30;8.93;;;;;;;9.57;100.00;102273.69;10463350;28;20123;-74
2023/09/24 04:46:54;;;;;;;21.45;9.10;;;;;;;9.63;100.00;102278.31;10468689;28;20044;-74
2023/09/24 04:51:55;;;;;;;20.40;9.35;;;;;;;9.63;100.00;102277.47;10473472;28;20048;-74
2023/09/24 04:56:55;;;;;;;26.00;9.75;;;;;;;9.63;100.00;102291.22;10465544;28;20037;-74
2023/09/24 05:01:56;;;;;;;33.47;10.45;;;;;;;9.61;100.00;102299.69;10478888;28;20489;-74
2023/09/24 05:06:56;;;;;;;25.13;10.27;;;;;;;9.48;100.00;102288.69;10474245;28;20105;-65
2023/09/24 05:11:57;;;;;;;24.92;11.65;;;;;;;9.61;100.00;102312.56;10474708;28;20516;-74
2023/09/24 05:16:58;;;;;;;23.35;11.07;;;;;;;9.62;100.00;102308.78;10476211;28;20045;-73
2023/09/24 05:21:58;;;;;;;36.70;12.70;;;;;;;9.67;100.00;102318.09;10483329;28;20070;-75
2023/09/24 05:26:59;;;;;;;24.20;11.52;;;;;;;9.68;100.00;102318.94;10485038;28;20130;-73
2023/09/24 05:32:02;;;;;;;27.55;11.77;;;;;;;9.72;100.00;102331.19;10484822;28;20036;-75
2023/09/24 05:37:03;;;;;;;30.90;12.35;;;;;;;9.47;100.00;102289.75;10485355;28;20396;-74
2023/09/24 05:42:03;;;;;;;27.40;11.57;;;;;;;9.80;100.00;102344.72;10486643;28;20041;-74
2023/09/24 05:47:07;;;;;;;26.95;12.80;;;;;;;9.84;100.00;102345.16;10481192;28;20059;-76
2023/09/24 05:52:07;;;;;;;30.85;13.40;;;;;;;9.83;100.00;102349.78;10478609;28;20033;-74
2023/09/24 05:57:07;;;;;;;30.73;13.18;;;;;;;9.90;100.00;102345.13;10486579;28;20487;-74
2023/09/24 06:02:08;;;;;;;34.72;15.18;;;;;;;9.94;100.00;102348.28;10479640;28;20443;-75
2023/09/24 06:07:08;;;;;;;31.35;14.38;;;;;;;9.93;100.00;102359.53;10487500;28;20389;-75
2023/09/24 06:12:09;;;;;;;36.08;16.23;;;;;;;9.93;100.00;102357.63;10475136;28;20040;-75
2023/09/24 06:17:09;;;;;;;37.15;16.38;;;;;;;9.98;100.00;102356.97;10485275;28;20036;-74
2023/09/24 06:22:10;;;;;;;31.33;15.13;;;;;;;10.13;100.00;102362.22;10478713;28;20041;-74
2023/09/24 06:27:10;;;;;;;33.38;14.70;;;;;;;10.20;100.00;102368.56;10482925;28;20071;-73
2023/09/24 06:32:11;;;;;;;30.65;15.15;;;;;;;10.28;100.00;102385.69;10482108;28;20099;-74
2023/09/24 06:37:11;;;;;;;29.83;16.00;;;;;;;10.36;100.00;102375.56;10483813;28;20037;-75
2023/09/24 06:42:12;;;;;;;31.98;15.30;;;;;;;10.43;100.00;102376.38;10468527;28;20036;-74
2023/09/24 06:47:12;;;;;;;31.35;14.45;;;;;;;10.54;100.00;102378.44;10482063;28;20053;-74
2023/09/24 06:52:13;;;;;;;26.15;13.05;;;;;;;10.62;100.00;102386.47;10479859;28;20029;-73
2023/09/24 06:57:13;;;;;;;28.60;14.20;;;;;;;10.78;100.00;102389.81;10481591;28;20461;-73
2023/09/24 07:02:15;;;;;;;35.88;15.60;;;;;;;10.91;100.00;102392.47;10479176;28;20033;-75
2023/09/24 07:07:15;;;;;;;24.45;12.07;;;;;;;11.05;100.00;102393.28;10484765;28;20354;-75
2023/09/24 07:12:16;;;;;;;24.67;12.35;;;;;;;11.00;100.00;102404.97;10476113;28;20052;-74
2023/09/24 07:17:16;;;;;;;22.60;13.07;;;;;;;11.10;100.00;102405.34;10452209;28;20037;-76
2023/09/24 07:22:21;;;;;;;21.23;11.18;;;;;;;11.19;100.00;102402.31;10457932;28;20088;-74
2023/09/24 07:27:21;;;;;;;22.35;11.80;;;;;;;11.28;100.00;102412.84;10451178;28;20048;-74
2023/09/24 07:32:22;;;;;;;21.58;11.60;;;;;;;11.25;100.00;102417.97;10448362;28;20045;-74
2023/09/24 07:37:22;;;;;;;20.52;11.27;;;;;;;11.26;100.00;102416.91;10449525;28;20050;-74
2023/09/24 07:42:22;;;;;;;26.90;12.18;;;;;;;11.36;100.00;102435.72;10467293;28;20622;-74
2023/09/24 07:47:23;;;;;;;23.70;11.52;;;;;;;11.39;100.00;102438.88;10479397;28;20060;-74
2023/09/24 07:52:23;;;;;;;18.25;10.80;;;;;;;11.48;100.00;102443.06;10463848;28;20129;-74
2023/09/24 07:57:24;;;;;;;21.80;9.80;;;;;;;11.59;100.00;102448.94;10452566;28;20032;-73
2023/09/24 08:02:25;;;;;;;18.73;10.85;;;;;;;11.71;100.00;102466.47;10447035;28;20042;-73
2023/09/24 08:07:29;;;;;;;19.05;10.30;;;;;;;11.85;100.00;102468.06;10445807;28;20049;-72
2023/09/24 08:12:29;;;;;;;14.13;8.50;;;;;;;11.96;100.00;102471.19;10446884;28;20068;-72
2023/09/24 08:17:30;;;;;;;12.00;7.70;;;;;;;12.03;100.00;102474.72;10466323;28;20055;-73
2023/09/24 08:22:30;;;;;;;16.00;8.02;;;;;;;12.19;100.00;102471.41;10465309;28;20496;-72
2023/09/24 08:27:31;;;;;;;15.27;7.05;;;;;;;12.31;100.00;102483.41;10480225;28;20488;-74
2023/09/24 08:32:31;;;;;;;12.55;6.18;;;;;;;12.50;100.00;102483.44;10473624;28;20037;-71
2023/09/24 08:37:32;;;;;;;12.15;5.35;;;;;;;12.68;100.00;102488.16;10474080;28;20098;-73
2023/09/24 08:42:33;;;;;;;13.32;6.22;;;;;;;12.87;100.00;102497.28;10470042;28;20037;-74
2023/09/24 08:47:33;;;;;;;11.75;5.10;;;;;;;12.97;100.00;102492.06;10464699;28;20045;-74
2023/09/24 08:52:35;;;;;;;7.65;5.28;;;;;;;13.30;100.00;102508.28;10476363;28;20049;-73
2023/09/24 08:57:36;;;;;;;8.80;4.55;;;;;;;13.47;100.00;102482.75;10473673;28;20067;-74
2023/09/24 09:02:39;;;;;;;7.05;4.13;;;;;;;13.83;100.00;102486.44;10476267;28;20036;-74
2023/09/24 09:07:54;;;;;;;10.20;4.47;;;;;;;14.10;100.00;102492.44;10475208;28;20120;-74
2023/09/24 09:13:11;;;;;;;10.18;4.22;;;;;;;14.28;100.00;102472.94;10432662;28;20038;-70
2023/09/24 09:18:24;;;;;;;;;;;;;;;14.38;100.00;102471.50;10477653;28;20096;-71
2023/09/24 09:23:41;;;;;;;6.85;3.63;;;;;;;14.75;100.00;102457.38;10465270;28;19928;-72
2023/09/24 09:28:41;;;;;;;5.95;3.58;;;;;;;15.14;100.00;102453.78;10468987;28;20033;-72
2023/09/24 09:33:43;;;;;;;6.22;3.05;;;;;;;15.33;100.00;102453.59;10479656;28;20040;-72
2023/09/24 09:38:43;;;;;;;8.27;3.22;;;;;;;15.46;100.00;102453.31;10470067;28;20037;-72
2023/09/24 09:43:45;;;;;;;7.95;2.95;;;;;;;15.68;100.00;102455.34;10465614;28;20032;-72
2023/09/24 09:49:07;;;;;;;6.72;3.03;;;;;;;15.79;100.00;102450.84;10458981;28;20032;-72
2023/09/24 09:54:08;;;;;;;7.18;3.10;;;;;;;15.81;100.00;102441.16;10467230;28;20052;-72
2023/09/24 09:59:09;;;;;;;3.42;2.00;;;;;;;16.09;100.00;102444.97;10481940;28;20043;-73
2023/09/24 10:04:09;;;;;;;7.47;2.53;;;;;;;16.16;100.00;102434.50;10478357;28;20041;-73
2023/09/24 10:09:31;;;;;;;5.20;2.20;;;;;;;16.42;100.00;102441.31;10485060;28;20040;-71
2023/09/24 10:14:35;;;;;;;5.38;2.15;;;;;;;16.60;100.00;102440.19;10475309;28;20049;-72
2023/09/24 10:19:48;;;;;;;1.92;1.20;;;;;;;16.50;100.00;102415.03;10484585;28;20040;-72
2023/09/24 10:24:49;;;;;;;8.23;1.92;;;;;;;16.68;100.00;102431.41;10483840;28;20098;-74
2023/09/24 10:29:51;;;;;;;5.65;1.48;;;;;;;16.80;100.00;102431.25;10483358;28;20512;-72
2023/09/24 10:34:52;;;;;;;5.88;1.88;;;;;;;17.06;100.00;102418.53;10480398;28;20137;-75
2023/09/24 10:40:05;;;;;;;5.95;1.55;;;;;;;17.30;100.00;102421.00;10469793;28;20041;-72
2023/09/24 10:45:06;;;;;;;5.90;1.67;;;;;;;17.45;100.00;102418.41;10462724;28;20102;-72
2023/09/24 10:50:14;;;;;;;3.58;1.17;;;;;;;17.62;100.00;102409.09;10477146;28;20052;-72
2023/09/24 10:55:15;;;;;;;3.20;1.27;;;;;;;17.94;100.00;102396.03;10475929;28;20678;-72
2023/09/24 11:00:17;;;;;;;7.13;1.65;;;;;;;17.97;100.00;102396.59;10442905;28;20060;-73
2023/09/24 11:05:17;;;;;;;7.60;1.25;;;;;;;17.73;100.00;102383.81;10443022;28;20055;-72
2023/09/24 11:10:22;;;;;;;3.40;0.85;;;;;;;17.91;100.00;102381.78;10455164;28;20132;-73
2023/09/24 11:15:24;;;;;;;5.03;1.80;;;;;;;18.12;100.00;102378.00;10442812;28;20053;-71
2023/09/24 11:20:28;;;;;;;5.10;1.02;;;;;;;18.61;100.00;102388.06;10457267;28;20133;-71
2023/09/24 11:25:29;;;;;;;2.92;1.00;;;;;;;18.63;100.00;102371.88;10448139;28;20075;-71
2023/09/24 11:30:47;;;;;;;1.98;1.33;;;;;;;18.99;100.00;102372.03;10443938;28;20060;-72
2023/09/24 11:35:51;;;;;;;1.90;0.80;;;;;;;18.82;100.00;102366.69;10455448;28;20037;-73
2023/09/24 11:40:52;;;;;;;4.78;1.00;;;;;;;19.00;100.00;102376.50;10449989;28;20505;-72
2023/09/24 11:45:55;;;;;;;2.92;0.95;;;;;;;19.04;100.00;102368.41;10482108;28;20044;-74
2023/09/24 11:51:02;;;;;;;2.65;0.98;;;;;;;19.38;100.00;102363.19;10476231;28;20052;-71
2023/09/24 11:56:04;;;;;;;4.57;1.13;;;;;;;19.63;100.00;102351.16;10480474;28;20041;-72
2023/09/24 12:01:08;;;;;;;4.10;1.35;;;;;;;20.20;100.00;102353.94;10473232;28;20044;-72
2023/09/24 12:06:08;;;;;;;8.00;1.13;;;;;;;21.46;100.00;102325.59;10478692;28;20056;-72
2023/09/24 12:11:09;;;;;;;4.53;0.90;;;;;;;22.45;100.00;102329.06;10480138;28;20056;-72
2023/09/24 12:16:11;;;;;;;6.03;1.08;;;;;;;22.48;100.00;102332.09;10454052;28;20037;-71
2023/09/24 12:21:11;;;;;;;4.03;1.30;;;;;;;22.72;96.18;102318.03;10447605;28;20052;-72
2023/09/24 12:26:12;;;;;;;4.32;1.17;;;;;;;22.40;96.01;102326.31;10447244;28;20166;-72
2023/09/24 12:31:12;;;;;;;2.88;0.90;;;;;;;22.91;98.04;102328.44;10465851;28;20067;-73
2023/09/24 12:36:14;;;;;;;1.10;0.75;;;;;;;23.53;88.72;102298.25;10474235;28;20041;-71
2023/09/24 12:41:15;;;;;;;2.63;1.02;;;;;;;22.69;91.74;102318.63;10471872;28;20041;-72
2023/09/24 12:46:15;;;;;;;3.80;0.93;;;;;;;23.32;90.22;102320.25;10467034;28;20044;-72
2023/09/24 12:51:15;;;;;;;1.40;0.70;;;;;;;23.27;89.28;102320.31;10471640;28;20412;-73
2023/09/24 12:56:16;;;;;;;3.30;0.90;;;;;;;23.32;86.71;102300.59;10476952;28;20267;-72
2023/09/24 13:01:19;;;;;;;2.42;0.75;;;;;;;23.14;85.54;102302.28;10475743;28;20056;-72
2023/09/24 13:06:25;;;;;;;5.22;0.90;;;;;;;23.38;84.17;102306.97;10478116;28;20045;-76
2023/09/24 13:11:26;;;;;;;2.67;0.98;;;;;;;24.22;83.89;102297.53;10472017;28;20069;-74
2023/09/24 13:16:26;;;;;;;3.17;0.82;;;;;;;24.33;81.39;102289.69;10478681;28;20044;-74
2023/09/24 13:21:27;;;;;;;3.58;0.88;;;;;;;22.67;83.34;102294.81;10474072;28;20469;-75
2023/09/24 13:26:27;;;;;;;3.63;1.20;;;;;;;21.86;88.37;102322.69;10478328;28;20439;-72
2023/09/24 13:31:28;;;;;;;5.05;1.00;;;;;;;21.14;89.21;102312.91;10473311;28;20041;-73
2023/09/24 13:36:28;;;;;;;4.43;0.73;;;;;;;20.80;91.99;102312.84;10479208;28;20049;-72
2023/09/24 13:41:29;;;;;;;3.40;0.77;;;;;;;21.01;94.62;102316.38;10476487;28;20507;-71
2023/09/24 13:46:30;;;;;;;4.93;1.10;;;;;;;21.68;92.86;102307.44;10484246;28;20040;-72
2023/09/24 13:51:35;;;;;;;2.55;0.70;;;;;;;22.81;92.48;102297.72;10482644;28;20459;-71
2023/09/24 13:56:36;;;;;;;2.07;0.80;;;;;;;23.41;84.68;102280.22;10485694;28;20060;-73
2023/09/24 14:01:36;;;;;;;3.08;0.73;;;;;;;23.75;86.94;102285.47;10480827;28;20041;-73
2023/09/24 14:06:37;;;;;;;2.22;1.00;;;;;;;23.60;86.56;102268.91;10483048;28;20048;-72
2023/09/24 14:12:38;;;;;;;3.03;0.80;;;;;;;24.34;85.07;102271.69;10453444;28;20036;-72
2023/09/24 14:17:07;;;;;;;2.38;0.90;;;;;;;24.90;85.83;102269.59;10440781;28;20045;-71
2023/09/24 14:22:08;;;;;;;3.90;0.80;;;;;;;25.32;82.08;102264.63;10456314;28;20052;-65
2023/09/24 14:27:08;;;;;;;4.05;1.08;;;;;;;24.66;75.76;102247.34;10458008;28;21988;-71
2023/09/24 14:32:09;;;;;;;5.85;0.75;;;;;;;24.46;79.51;102262.72;10453518;28;20040;-74
2023/09/24 14:37:10;;;;;;;2.40;0.95;;;;;;;24.50;78.75;102258.16;10451479;28;20037;-74
2023/09/24 14:42:11;;;;;;;2.00;0.75;;;;;;;24.53;80.77;102263.13;10481397;28;20043;-73
2023/09/24 14:47:11;;;;;;;2.85;1.00;;;;;;;24.57;79.76;102255.72;10478699;28;20041;-73
2023/09/24 14:52:12;;;;;;;4.32;1.60;;;;;;;24.73;79.84;102254.22;10481484;28;20036;-73
2023/09/24 14:57:13;;;;;;;2.60;0.70;;;;;;;24.62;79.18;102257.56;10480679;28;20036;-73
2023/09/24 15:02:13;;;;;;;2.40;0.93;;;;;;;24.00;78.48;102243.97;10477427;28;20033;-73
2023/09/24 15:07:13;;;;;;;4.03;0.90;;;;;;;22.93;78.45;102239.13;10482029;28;20086;-73
2023/09/24 15:12:15;;;;;;;2.60;0.80;;;;;;;22.75;83.67;102250.03;10477203;28;20041;-77
2023/09/24 15:17:15;;;;;;;3.03;1.20;;;;;;;22.16;82.61;102234.59;10466022;28;20041;-75
2023/09/24 15:22:16;;;;;;;3.08;1.00;;;;;;;21.70;89.48;102257.53;10466094;28;20041;-73
2023/09/24 15:27:16;;;;;;;4.63;1.27;;;;;;;20.78;86.57;102247.09;10464414;28;20053;-73
2023/09/24 15:32:17;;;;;;;3.72;0.95;;;;;;;20.08;89.19;102261.97;10465991;28;20040;-73
2023/09/24 15:37:17;;;;;;;4.65;0.70;;;;;;;19.70;96.69;102278.22;10475280;28;20033;-72
2023/09/24 15:42:18;;;;;;;2.45;1.00;;;;;;;19.29;100.00;102283.88;10477611;28;20053;-73
2023/09/24 15:47:18;;;;;;;3.42;1.33;;;;;;;18.96;100.00;102274.91;10481329;28;20048;-75
2023/09/24 15:52:18;;;;;;;4.72;1.05;;;;;;;18.65;100.00;102280.41;10470892;28;20037;-74
2023/09/24 15:57:19;;;;;;;4.45;0.98;;;;;;;18.36;100.00;102277.25;10478760;28;20037;-72
2023/09/24 16:02:21;;;;;;;3.45;1.02;;;;;;;18.22;100.00;102281.63;10461596;28;20040;-72
2023/09/24 16:07:21;;;;;;;4.78;0.90;;;;;;;17.98;100.00;102279.28;10485317;28;20044;-71
2023/09/24 16:12:22;;;;;;;3.55;1.52;;;;;;;17.81;100.00;102271.06;10477061;28;20045;-71
2023/09/24 16:17:22;;;;;;;5.63;1.25;;;;;;;17.53;100.00;102262.00;10480476;28;20060;-72
2023/09/24 16:22:23;;;;;;;2.67;0.90;;;;;;;17.44;100.00;102271.94;10458042;28;20509;-73
2023/09/24 16:27:23;;;;;;;3.70;1.83;;;;;;;17.24;100.00;102277.31;10476176;28;20044;-72
2023/09/24 16:32:24;;;;;;;4.57;1.00;;;;;;;16.94;100.00;102274.00;10480102;28;20041;-74
2023/09/24 16:37:24;;;;;;;2.72;0.77;;;;;;;16.72;100.00;102282.38;10479096;28;20041;-73
2023/09/24 16:42:28;;;;;;;3.10;0.95;;;;;;;16.53;100.00;102275.47;10480122;28;20045;-73
2023/09/24 16:47:28;;;;;;;2.20;1.02;;;;;;;16.42;100.00;102293.16;10482920;28;20052;-73
2023/09/24 16:52:28;;;;;;;2.55;1.25;;;;;;;16.22;100.00;102294.56;10477206;28;20144;-73
2023/09/24 16:57:29;;;;;;;3.65;1.40;;;;;;;16.03;100.00;102299.59;10476406;28;20090;-73
2023/09/24 17:02:29;;;;;;;2.20;1.02;;;;;;;15.71;100.00;102280.78;10476222;28;20047;-73
2023/09/24 17:07:30;;;;;;;1.92;0.93;;;;;;;15.65;100.00;102317.06;10485133;28;20036;-74
2023/09/24 17:12:31;;;;;;;7.63;1.40;;;;;;;15.45;100.00;102323.94;10491173;28;20067;-73
2023/09/24 17:17:31;;;;;;;5.57;1.67;;;;;;;15.21;100.00;102317.69;10464650;28;20044;-73
2023/09/24 17:22:32;;;;;;;2.67;1.10;;;;;;;14.99;100.00;102327.84;10484285;28;20059;-74
2023/09/24 17:27:32;;;;;;;3.40;1.15;;;;;;;14.72;100.00;102337.59;10481676;28;20048;-73
2023/09/24 17:32:32;;;;;;;6.05;1.42;;;;;;;14.49;100.00;102334.84;10473374;28;20033;-72
2023/09/24 17:37:33;;;;;;;4.15;1.27;;;;;;;14.29;100.00;102335.25;10490201;28;20037;-72
2023/09/24 17:42:33;;;;;;;4.43;1.10;;;;;;;14.03;100.00;102334.69;10465882;28;20120;-72
2023/09/24 17:47:34;;;;;;;3.05;1.10;;;;;;;13.84;100.00;102336.72;10454232;28;20041;-72
2023/09/24 17:52:34;;;;;;;3.97;1.30;;;;;;;13.65;100.00;102337.94;10441954;28;20037;-72
2023/09/24 17:57:35;;;;;;;8.45;1.95;;;;;;;13.51;100.00;102340.91;10441451;28;20033;-72
2023/09/24 18:02:35;;;;;;;2.78;1.55;;;;;;;13.27;100.00;102319.78;10484817;28;20086;-72
2023/09/24 18:07:36;;;;;;;3.83;1.77;;;;;;;13.27;100.00;102341.91;10489995;28;20493;-69
2023/09/24 18:12:36;;;;;;;4.05;1.30;;;;;;;13.18;100.00;102344.19;10491884;28;20049;-72
2023/09/24 18:17:37;;;;;;;3.83;1.45;;;;;;;13.10;100.00;102350.91;10479870;28;20044;-73
2023/09/24 18:22:39;;;;;;;4.32;1.55;;;;;;;13.02;100.00;102362.31;10459642;28;20836;-72
2023/09/24 18:27:40;;;;;;;3.13;1.63;;;;;;;12.86;100.00;102349.13;10462914;28;20033;-72
2023/09/24 18:32:40;;;;;;;4.95;1.60;;;;;;;12.87;100.00;102364.63;10465164;28;20041;-72
2023/09/24 18:37:41;;;;;;;3.72;1.30;;;;;;;12.80;100.00;102366.66;10462007;28;20409;-72
2023/09/24 18:42:44;;;;;;;2.03;1.27;;;;;;;12.69;100.00;102374.63;10469266;28;20033;-72
2023/09/24 18:47:44;;;;;;;5.82;1.60;;;;;;;12.60;100.00;102369.66;10468708;28;20044;-72
2023/09/24 18:52:45;;;;;;;6.38;1.35;;;;;;;12.49;100.00;102369.34;10482121;28;20036;-72
2023/09/24 18:57:45;;;;;;;5.63;1.80;;;;;;;12.43;100.00;102374.97;10479089;28;20028;-72
2023/09/24 19:02:47;;;;;;;2.30;1.33;;;;;;;12.37;100.00;102354.63;10483727;28;20033;-72
2023/09/24 19:07:48;;;;;;;7.50;1.85;;;;;;;12.30;100.00;102362.16;10482368;28;20068;-72
2023/09/24 19:12:49;;;;;;;3.97;1.67;;;;;;;12.25;100.00;102354.53;10484346;28;20041;-72
2023/09/24 19:17:49;;;;;;;5.85;1.70;;;;;;;12.27;100.00;102349.63;10485602;28;20041;-70
2023/09/24 19:22:50;;;;;;;5.78;1.50;;;;;;;12.31;100.00;102339.81;10480868;28;20040;-72
2023/09/24 19:27:50;;;;;;;3.63;1.60;;;;;;;12.19;100.00;102325.06;10480505;28;20044;-67
2023/09/24 19:32:51;;;;;;;4.88;3.00;;;;;;;12.26;100.00;102334.16;10479212;28;20044;-72
2023/09/24 19:37:51;;;;;;;4.97;2.90;;;;;;;12.23;100.00;102315.25;10475190;28;20610;-72
2023/09/24 19:42:51;;;;;;;4.93;2.92;;;;;;;12.40;100.00;102320.16;10482035;28;20051;-72
2023/09/24 19:47:53;;;;;;;5.88;2.83;;;;;;;12.46;100.00;102313.72;10476746;28;20044;-72
2023/09/24 19:52:53;;;;;;;4.38;2.20;;;;;;;12.51;100.00;102311.13;10476239;28;20055;-72
2023/09/24 19:57:54;;;;;;;8.13;2.15;;;;;;;12.55;100.00;102314.22;10481855;28;20041;-72
2023/09/24 20:02:54;;;;;;;3.35;1.60;;;;;;;12.61;100.00;102302.25;10477669;28;20040;-72
2023/09/24 20:07:55;;;;;;;3.08;1.50;;;;;;;12.61;100.00;102294.84;10480209;28;20087;-70
2023/09/24 20:12:55;;;;;;;3.63;1.70;;;;;;;12.52;100.00;102282.41;10482823;28;20049;-71
2023/09/24 20:17:56;;;;;;;4.43;1.70;;;;;;;12.50;100.00;102281.78;10475418;28;20063;-72
2023/09/24 20:22:57;;;;;;;6.05;1.90;;;;;;;12.47;100.00;102282.28;10479851;28;20525;-72
2023/09/24 20:27:58;;;;;;;3.03;1.60;;;;;;;12.38;100.00;102270.72;10481231;28;20067;-71
2023/09/24 20:32:58;;;;;;;6.32;1.73;;;;;;;12.42;100.00;102279.34;10484674;28;20033;-71
2023/09/24 20:37:59;;;;;;;2.97;1.70;;;;;;;12.25;100.00;102257.88;10465570;28;20417;-71
2023/09/24 20:42:59;;;;;;;3.72;1.55;;;;;;;12.24;100.00;102275.53;10467861;28;20500;-72
2023/09/24 20:48:00;;;;;;;4.50;1.75;;;;;;;12.17;100.00;102277.53;10479812;28;20100;-71
2023/09/24 20:53:00;;;;;;;4.28;1.83;;;;;;;12.14;100.00;102266.97;10459625;28;20492;-72
2023/09/24 20:58:01;;;;;;;3.13;1.70;;;;;;;12.15;100.00;102260.34;10456773;28;20041;-72
2023/09/24 21:03:01;;;;;;;2.97;1.58;;;;;;;12.13;100.00;102247.84;10479467;28;20037;-69
2023/09/24 21:08:02;;;;;;;2.13;1.33;;;;;;;12.11;100.00;102248.06;10451886;28;20370;-72
2023/09/24 21:13:03;;;;;;;5.88;1.60;;;;;;;12.02;100.00;102244.78;10459285;28;20037;-72
2023/09/24 21:18:04;;;;;;;3.88;2.10;;;;;;;12.07;100.00;102244.97;10462027;28;20057;-73
2023/09/24 21:23:05;;;;;;;3.15;1.35;;;;;;;12.13;100.00;102248.69;10465103;28;20040;-72
2023/09/24 21:28:05;;;;;;;3.95;1.70;;;;;;;12.10;100.00;102243.66;10460073;28;20041;-73
2023/09/24 21:33:06;;;;;;;3.45;1.83;;;;;;;12.03;100.00;102238.22;10470962;28;20063;-72
2023/09/24 21:38:07;;;;;;;2.47;1.60;;;;;;;12.00;100.00;102237.81;10484238;28;20407;-72
2023/09/24 21:43:08;;;;;;;2.60;1.35;;;;;;;11.97;100.00;102232.75;10476672;28;20439;-72
2023/09/24 21:48:09;;;;;;;4.22;1.45;;;;;;;11.88;100.00;102233.06;10472549;28;20120;-71
2023/09/24 21:53:09;;;;;;;4.03;1.65;;;;;;;11.88;100.00;102240.47;10468370;28;20044;-72
2023/09/24 21:58:10;;;;;;;2.72;1.65;;;;;;;11.86;100.00;102226.91;10473652;28;20490;-72
2023/09/24 22:03:10;;;;;;;2.80;1.67;;;;;;;11.90;100.00;102224.56;10486670;28;20037;-72
2023/09/24 22:08:11;;;;;;;3.85;1.75;;;;;;;11.88;100.00;102224.78;10482881;28;20190;-72
2023/09/24 22:13:11;;;;;;;5.03;2.38;;;;;;;11.84;100.00;102229.03;10476466;28;20041;-72
2023/09/24 22:18:12;;;;;;;6.20;1.73;;;;;;;11.84;100.00;102225.44;10477434;28;20033;-72
2023/09/24 22:23:12;;;;;;;3.95;1.48;;;;;;;11.82;100.00;102222.91;10474378;28;20549;-72
2023/09/24 22:28:12;;;;;;;5.90;2.08;;;;;;;11.77;100.00;102227.44;10481178;28;20044;-72
2023/09/24 22:33:13;;;;;;;4.55;1.75;;;;;;;11.72;100.00;102222.63;10485365;28;20068;-72
2023/09/24 22:38:13;;;;;;;2.38;1.73;;;;;;;11.64;100.00;102218.25;10477239;28;20044;-72
2023/09/24 22:43:14;;;;;;;2.92;1.25;;;;;;;11.55;100.00;102218.75;10480119;28;20051;-72
2023/09/24 22:48:16;;;;;;;2.13;1.60;;;;;;;11.41;100.00;102224.44;10484498;28;20037;-72